createdAt,value
2022-10-04T00:01:59.012Z,13.13
2022-10-04T00:04:26.417Z,12.97
2022-10-04T00:07:06.240Z,12.83
2022-10-04T00:09:46.111Z,12.72
2022-10-04T00:12:19.505Z,12.57
2022-10-04T00:14:46.856Z,12.43
2022-10-04T00:17:21.771Z,12.44
2022-10-04T00:19:51.670Z,12.49
2022-10-04T00:22:27.319Z,12.29
2022-10-04T00:25:17.607Z,12.17
2022-10-04T00:28:21.966Z,12.04
2022-10-04T00:31:08.097Z,12.08
2022-10-04T00:33:42.747Z,12.24
2022-10-04T00:36:24.965Z,12.19
2022-10-04T00:39:06.951Z,12.22
2022-10-04T00:41:58.191Z,12.17
2022-10-04T00:44:43.329Z,12.15
2022-10-04T00:47:34.413Z,12.30
2022-10-04T00:50:16.337Z,12.26
2022-10-04T00:52:50.267Z,12.04
2022-10-04T00:55:47.207Z,11.85
2022-10-04T00:58:29.833Z,11.97
2022-10-04T01:00:58.245Z,12.01
2022-10-04T01:03:33.166Z,12.00
2022-10-04T01:06:03.568Z,11.95
2022-10-04T01:08:50.505Z,11.95
2022-10-04T01:11:22.758Z,11.84
2022-10-04T01:14:02.007Z,11.85
2022-10-04T01:16:33.784Z,11.72
2022-10-04T01:19:22.770Z,11.54
2022-10-04T01:22:10.766Z,11.58
2022-10-04T01:24:41.202Z,11.48
2022-10-04T01:27:33.457Z,11.45
2022-10-04T01:30:01.815Z,11.45
2022-10-04T01:32:31.266Z,11.48
2022-10-04T01:34:59.165Z,11.33
2022-10-04T01:37:26.328Z,11.28
2022-10-04T01:39:53.688Z,11.35
2022-10-04T01:42:23.639Z,11.42
2022-10-04T01:45:02.474Z,11.41
2022-10-04T01:47:44.965Z,11.46
2022-10-04T01:50:20.435Z,11.54
2022-10-04T01:52:53.981Z,11.64
2022-10-04T01:55:26.308Z,11.64
2022-10-04T01:58:00.210Z,11.58
2022-10-04T02:00:54.592Z,11.53
2022-10-04T02:03:38.094Z,11.48
2022-10-04T02:06:08.115Z,11.45
2022-10-04T02:08:38.081Z,11.42
2022-10-04T02:11:07.730Z,11.36
2022-10-04T02:13:40.058Z,11.38
2022-10-04T02:16:12.208Z,11.34
2022-10-04T02:18:43.758Z,11.20
2022-10-04T02:21:12.994Z,11.29
2022-10-04T02:23:42.056Z,11.30
2022-10-04T02:26:11.304Z,11.24
2022-10-04T02:28:40.500Z,11.23
2022-10-04T02:31:28.290Z,11.13
2022-10-04T02:33:58.375Z,11.17
2022-10-04T02:36:29.726Z,10.99
2022-10-04T02:39:08.691Z,10.80
2022-10-04T02:41:41.604Z,10.78
2022-10-04T02:44:18.309Z,10.90
2022-10-04T02:46:51.644Z,11.06
2022-10-04T02:49:32.144Z,11.08
2022-10-04T02:52:13.756Z,11.09
2022-10-04T02:54:48.710Z,11.06
2022-10-04T02:57:25.088Z,11.14
2022-10-04T03:00:10.193Z,11.08
2022-10-04T03:02:37.353Z,11.01
2022-10-04T03:05:11.266Z,10.88
2022-10-04T03:07:39.841Z,10.92
2022-10-04T03:10:12.154Z,11.02
2022-10-04T03:12:42.859Z,10.97
2022-10-04T03:15:12.122Z,10.96
2022-10-04T03:17:42.358Z,11.02
2022-10-04T03:20:15.849Z,11.04
2022-10-04T03:22:47.087Z,10.93
2022-10-04T03:25:31.397Z,10.86
2022-10-04T03:28:02.980Z,10.80
2022-10-04T03:30:32.439Z,10.64
2022-10-04T03:33:00.400Z,10.62
2022-10-04T03:35:27.345Z,10.53
2022-10-04T03:37:57.374Z,10.69
2022-10-04T03:40:29.546Z,10.72
2022-10-04T03:42:58.079Z,10.63
2022-10-04T03:45:28.588Z,10.62
2022-10-04T03:48:03.282Z,10.60
2022-10-04T03:50:34.370Z,10.58
2022-10-04T03:53:29.723Z,10.45
2022-10-04T03:56:02.110Z,10.43
2022-10-04T03:58:32.159Z,10.40
2022-10-04T04:00:59.317Z,10.33
2022-10-04T04:03:30.012Z,10.28
2022-10-04T04:06:00.476Z,10.32
2022-10-04T04:08:30.225Z,10.38
2022-10-04T04:10:59.668Z,10.34
2022-10-04T04:13:32.525Z,10.26
2022-10-04T04:16:02.951Z,10.27
2022-10-04T04:18:34.007Z,10.35
2022-10-04T04:21:03.192Z,10.33
2022-10-04T04:23:40.082Z,10.28
2022-10-04T04:26:39.391Z,10.26
2022-10-04T04:29:22.605Z,10.14
2022-10-04T04:31:58.398Z,10.01
2022-10-04T04:34:30.118Z,9.91
2022-10-04T04:37:00.482Z,9.81
2022-10-04T04:39:34.932Z,9.78
2022-10-04T04:42:12.066Z,9.69
2022-10-04T04:44:47.732Z,9.63
2022-10-04T04:47:29.729Z,9.61
2022-10-04T04:50:01.980Z,9.61
2022-10-04T04:52:30.101Z,9.65
2022-10-04T04:54:57.850Z,9.78
2022-10-04T04:57:25.465Z,9.72
2022-10-04T04:59:57.966Z,9.74
2022-10-04T05:02:57.533Z,9.81
2022-10-04T05:05:30.800Z,9.80
2022-10-04T05:08:28.210Z,9.83
2022-10-04T05:10:58.062Z,9.77
2022-10-04T05:13:55.093Z,9.81
2022-10-04T05:16:27.309Z,9.87
2022-10-04T05:19:08.412Z,10.01
2022-10-04T05:21:40.792Z,10.08
2022-10-04T05:24:15.455Z,10.14
2022-10-04T05:26:43.146Z,10.24
2022-10-04T05:29:17.394Z,10.24
2022-10-04T05:31:51.172Z,10.46
2022-10-04T05:34:23.893Z,10.55
2022-10-04T05:36:58.937Z,10.73
2022-10-04T05:39:41.109Z,10.88
2022-10-04T05:42:32.960Z,10.97
2022-10-04T05:45:01.479Z,11.20
2022-10-04T05:47:31.046Z,11.27
2022-10-04T05:50:00.254Z,11.37
2022-10-04T05:52:34.782Z,11.45
2022-10-04T05:55:18.021Z,11.65
2022-10-04T05:58:06.169Z,11.81
2022-10-04T06:00:51.478Z,12.02
2022-10-04T06:03:50.048Z,12.11
2022-10-04T06:06:29.769Z,12.29
2022-10-04T06:09:37.638Z,12.53
2022-10-04T06:12:17.552Z,12.66
2022-10-04T06:15:08.579Z,12.84
2022-10-04T06:17:44.334Z,13.03
2022-10-04T06:20:32.980Z,12.89
2022-10-04T06:23:02.062Z,12.84
2022-10-04T06:25:47.934Z,12.82
2022-10-04T06:28:41.142Z,12.79
2022-10-04T06:31:49.677Z,13.02
2022-10-04T06:34:19.305Z,13.09
2022-10-04T06:36:46.350Z,12.96
2022-10-04T06:39:27.491Z,13.07
2022-10-04T06:42:17.541Z,13.28
2022-10-04T06:44:55.972Z,13.24
2022-10-04T06:47:44.104Z,13.33
2022-10-04T06:50:24.552Z,13.19
2022-10-04T06:52:58.765Z,13.10
2022-10-04T06:55:49.991Z,12.98
2022-10-04T06:58:18.146Z,13.03
2022-10-04T07:00:57.326Z,13.11
2022-10-04T07:03:41.529Z,13.00
2022-10-04T07:06:11.628Z,13.08
2022-10-04T07:08:50.138Z,13.11
2022-10-04T07:11:44.289Z,12.80
2022-10-04T07:14:27.918Z,12.78
2022-10-04T07:17:09.542Z,13.05
2022-10-04T07:19:39.447Z,13.15
2022-10-04T07:22:12.870Z,13.12
2022-10-04T07:24:57.379Z,13.45
2022-10-04T07:27:32.121Z,13.59
2022-10-04T07:30:04.784Z,13.84
2022-10-04T07:32:39.013Z,14.00
2022-10-04T07:35:20.274Z,14.10
2022-10-04T07:38:18.509Z,14.32
2022-10-04T07:41:20.196Z,14.25
2022-10-04T07:43:56.448Z,14.49
2022-10-04T07:46:58.594Z,14.50
2022-10-04T07:49:45.846Z,14.51
2022-10-04T07:52:49.236Z,14.68
2022-10-04T07:55:32.251Z,14.74
2022-10-04T07:58:15.121Z,14.64
2022-10-04T08:01:18.418Z,15.04
2022-10-04T08:04:03.116Z,15.29
2022-10-04T08:06:46.639Z,15.39
2022-10-04T08:09:44.283Z,15.69
2022-10-04T08:12:42.550Z,15.86
2022-10-04T08:15:36.370Z,16.06
2022-10-04T08:18:15.439Z,16.07
2022-10-04T08:20:48.571Z,16.15
2022-10-04T08:23:21.404Z,16.16
2022-10-04T08:26:25.930Z,16.36
2022-10-04T08:29:22.677Z,16.30
2022-10-04T08:32:11.458Z,16.65
2022-10-04T08:35:16.483Z,16.22
2022-10-04T08:38:05.160Z,16.20
2022-10-04T08:41:08.133Z,16.32
2022-10-04T08:44:15.598Z,16.41
2022-10-04T08:47:21.866Z,16.52
2022-10-04T08:50:01.004Z,16.84
2022-10-04T08:52:52.766Z,16.82
2022-10-04T08:55:44.375Z,16.63
2022-10-04T08:58:17.134Z,16.73
2022-10-04T09:00:49.032Z,16.70
2022-10-04T09:03:34.465Z,16.72
2022-10-04T09:06:12.157Z,16.61
2022-10-04T09:09:13.233Z,16.84
2022-10-04T09:12:11.048Z,16.94
2022-10-04T09:14:43.715Z,16.98
2022-10-04T09:17:29.887Z,16.92
2022-10-04T09:20:37.810Z,16.80
2022-10-04T09:23:08.332Z,16.81
2022-10-04T09:26:07.768Z,16.88
2022-10-04T09:29:13.136Z,16.88
2022-10-04T09:32:06.277Z,17.02
2022-10-04T09:34:37.288Z,16.81
2022-10-04T09:37:04.710Z,16.96
2022-10-04T09:39:59.105Z,17.18
2022-10-04T09:43:06.008Z,17.09
2022-10-04T09:45:43.702Z,17.24
2022-10-04T09:48:32.799Z,17.49
2022-10-04T09:51:41.101Z,17.16
2022-10-04T09:54:44.975Z,17.07
2022-10-04T09:57:29.208Z,17.47
2022-10-04T10:00:09.738Z,17.55
2022-10-04T10:03:16.020Z,17.68
2022-10-04T10:06:26.535Z,17.74
2022-10-04T10:09:09.119Z,17.80
2022-10-04T10:12:22.660Z,17.92
2022-10-04T10:15:15.269Z,17.76
2022-10-04T10:18:16.407Z,17.79
2022-10-04T10:21:14.860Z,17.85
2022-10-04T10:23:47.677Z,17.93
2022-10-04T10:26:46.262Z,17.95
2022-10-04T10:29:19.155Z,18.10
2022-10-04T10:32:28.106Z,18.13
2022-10-04T10:35:25.401Z,18.15
2022-10-04T10:38:29.506Z,18.05
2022-10-04T10:41:04.427Z,17.88
2022-10-04T10:43:53.400Z,17.97
2022-10-04T10:46:39.760Z,18.17
2022-10-04T10:49:37.769Z,18.26
2022-10-04T10:52:35.870Z,18.29
2022-10-04T10:55:42.025Z,18.32
2022-10-04T10:58:25.701Z,18.23
2022-10-04T11:01:17.234Z,18.39
2022-10-04T11:04:02.874Z,18.61
2022-10-04T11:06:33.301Z,18.55
2022-10-04T11:09:22.963Z,18.65
2022-10-04T11:12:05.872Z,18.67
2022-10-04T11:14:44.020Z,18.92
2022-10-04T11:17:21.078Z,18.92
2022-10-04T11:20:06.270Z,18.90
2022-10-04T11:22:55.330Z,18.97
2022-10-04T11:25:56.602Z,18.96
2022-10-04T11:28:46.967Z,18.96
2022-10-04T11:31:36.251Z,19.29
2022-10-04T11:34:16.678Z,19.12
2022-10-04T11:37:02.978Z,18.89
2022-10-04T11:39:58.066Z,19.09
2022-10-04T11:42:44.056Z,18.99
2022-10-04T11:45:33.422Z,19.19
2022-10-04T11:48:11.520Z,19.09
2022-10-04T11:50:56.788Z,18.99
2022-10-04T11:53:35.949Z,18.95
2022-10-04T11:56:19.049Z,18.94
2022-10-04T11:59:10.791Z,19.33
2022-10-04T12:01:52.651Z,19.49
2022-10-04T12:04:34.160Z,19.45
2022-10-04T12:07:31.641Z,19.19
2022-10-04T12:10:17.360Z,19.13
2022-10-04T12:12:53.445Z,19.23
2022-10-04T12:15:58.036Z,19.34
2022-10-04T12:18:43.768Z,19.42
2022-10-04T12:21:29.655Z,19.60
2022-10-04T12:24:20.568Z,19.78
2022-10-04T12:27:09.960Z,19.62
2022-10-04T12:30:01.403Z,19.87
2022-10-04T12:32:52.228Z,19.79
2022-10-04T12:35:34.577Z,19.71
2022-10-04T12:38:32.610Z,19.99
2022-10-04T12:41:19.480Z,20.22
2022-10-04T12:44:05.205Z,20.28
2022-10-04T12:46:56.541Z,20.46
2022-10-04T12:49:51.201Z,20.15
2022-10-04T12:52:24.862Z,20.12
2022-10-04T12:55:24.978Z,20.55
2022-10-04T12:58:04.000Z,20.26
2022-10-04T13:00:38.649Z,20.42
2022-10-04T13:03:24.130Z,20.55
2022-10-04T13:06:28.997Z,20.86
2022-10-04T13:09:19.537Z,21.28
2022-10-04T13:12:07.592Z,21.52
2022-10-04T13:14:48.320Z,21.49
2022-10-04T13:17:37.735Z,21.32
2022-10-04T13:20:50.533Z,21.67
2022-10-04T13:23:42.284Z,21.41
2022-10-04T13:26:15.784Z,21.01
2022-10-04T13:29:07.237Z,20.92
2022-10-04T13:31:55.598Z,20.80
2022-10-04T13:34:34.262Z,20.67
2022-10-04T13:37:03.974Z,20.82
2022-10-04T13:40:03.154Z,20.73
2022-10-04T13:43:05.729Z,20.86
2022-10-04T13:45:54.762Z,20.88
2022-10-04T13:48:59.317Z,20.58
2022-10-04T13:51:29.303Z,19.99
2022-10-04T13:54:39.238Z,20.25
2022-10-04T13:57:27.121Z,20.04
2022-10-04T14:00:02.863Z,19.70
2022-10-04T14:03:01.212Z,19.73
2022-10-04T14:05:52.859Z,19.98
2022-10-04T14:08:25.522Z,19.84
2022-10-04T14:11:14.141Z,19.39
2022-10-04T14:14:02.682Z,19.37
2022-10-04T14:17:06.778Z,19.43
2022-10-04T14:20:07.579Z,19.48
2022-10-04T14:23:28.838Z,19.74
2022-10-04T14:26:13.817Z,19.92
2022-10-04T14:28:59.415Z,20.00
2022-10-04T14:31:47.244Z,20.12
2022-10-04T14:35:06.741Z,20.10
2022-10-04T14:37:42.548Z,20.04
2022-10-04T14:40:18.708Z,20.08
2022-10-04T14:43:33.798Z,20.03
2022-10-04T14:46:39.207Z,20.04
2022-10-04T14:49:25.220Z,19.94
2022-10-04T14:52:06.802Z,19.89
2022-10-04T14:54:40.460Z,19.85
2022-10-04T14:57:19.471Z,19.71
2022-10-04T15:00:05.101Z,19.51
2022-10-04T15:02:32.034Z,19.23
2022-10-04T15:05:26.393Z,19.08
2022-10-04T15:08:18.205Z,19.15
2022-10-04T15:10:59.597Z,19.31
2022-10-04T15:13:39.717Z,19.21
2022-10-04T15:16:37.317Z,19.16
2022-10-04T15:19:12.787Z,19.29
2022-10-04T15:22:20.188Z,19.19
2022-10-04T15:24:52.154Z,19.17
2022-10-04T15:27:34.451Z,19.08
2022-10-04T15:30:13.688Z,19.10
2022-10-04T15:32:55.376Z,19.03
2022-10-04T15:35:42.615Z,18.96
2022-10-04T15:38:18.716Z,18.91
2022-10-04T15:41:41.831Z,18.97
2022-10-04T15:44:11.930Z,18.74
2022-10-04T15:47:03.929Z,18.66
2022-10-04T15:49:48.533Z,18.57
2022-10-04T15:52:47.322Z,18.46
2022-10-04T15:55:37.104Z,18.44
2022-10-04T15:58:22.520Z,18.58
2022-10-04T16:01:27.515Z,18.38
2022-10-04T16:04:33.465Z,18.19
2022-10-04T16:07:35.732Z,18.00
2022-10-04T16:10:28.432Z,17.88
2022-10-04T16:13:19.662Z,17.74
2022-10-04T16:15:49.871Z,17.51
2022-10-04T16:18:25.988Z,17.27
2022-10-04T16:21:17.981Z,17.12
2022-10-04T16:23:45.404Z,17.18
2022-10-04T16:26:37.711Z,16.98
2022-10-04T16:29:35.859Z,16.84
2022-10-04T16:32:17.762Z,16.76
2022-10-04T16:34:45.587Z,16.62
2022-10-04T16:37:42.185Z,16.46
2022-10-04T16:40:27.871Z,16.33
2022-10-04T16:43:01.459Z,16.31
2022-10-04T16:45:53.442Z,16.24
2022-10-04T16:48:49.328Z,16.14
2022-10-04T16:51:19.445Z,16.04
2022-10-04T16:54:01.156Z,15.99
2022-10-04T16:56:32.979Z,16.00
2022-10-04T16:59:04.179Z,15.92
2022-10-04T17:01:43.540Z,15.87
2022-10-04T17:04:31.279Z,16.22
2022-10-04T17:07:18.092Z,16.20
2022-10-04T17:09:54.393Z,16.12
2022-10-04T17:12:35.365Z,16.23
2022-10-04T17:15:14.647Z,16.20
2022-10-04T17:17:57.109Z,16.23
2022-10-04T17:20:42.382Z,16.06
2022-10-04T17:23:37.944Z,16.09
2022-10-04T17:26:33.102Z,15.95
2022-10-04T17:29:22.352Z,15.93
2022-10-04T17:31:56.909Z,15.68
2022-10-04T17:34:27.433Z,15.56
2022-10-04T17:37:03.072Z,15.65
2022-10-04T17:39:50.199Z,15.61
2022-10-04T17:42:23.508Z,15.32
2022-10-04T17:45:04.501Z,15.05
2022-10-04T17:47:57.934Z,14.87
2022-10-04T17:51:20.297Z,14.87
2022-10-04T17:54:14.087Z,14.78
2022-10-04T18:00:09.423Z,15.00
2022-10-04T18:02:58.284Z,14.93
2022-10-04T18:05:43.229Z,14.93
2022-10-04T18:08:25.197Z,14.95
2022-10-04T18:11:03.828Z,14.87
2022-10-04T18:13:55.136Z,14.78
2022-10-04T18:16:22.730Z,14.81
2022-10-04T18:18:51.009Z,14.74
2022-10-04T18:21:27.550Z,14.62
2022-10-04T18:23:58.100Z,14.46
2022-10-04T18:26:32.524Z,14.30
2022-10-04T18:29:02.597Z,14.45
2022-10-04T18:31:31.346Z,14.51
2022-10-04T18:34:04.405Z,14.53
2022-10-04T18:36:51.260Z,14.54
2022-10-04T18:39:22.025Z,14.40
2022-10-04T18:42:01.245Z,14.34
2022-10-04T18:44:49.374Z,14.45
2022-10-04T18:47:38.552Z,14.54
2022-10-04T18:50:22.237Z,14.57
2022-10-04T18:53:02.375Z,14.57
2022-10-04T18:56:07.447Z,14.60
2022-10-04T18:58:52.700Z,14.59
2022-10-04T19:01:53.480Z,14.58
2022-10-04T19:04:32.718Z,14.57
2022-10-04T19:07:11.092Z,14.47
2022-10-04T19:09:59.355Z,14.40
2022-10-04T19:12:36.272Z,14.38
2022-10-04T19:15:18.757Z,14.36
2022-10-04T19:18:12.859Z,14.37
2022-10-04T19:20:45.600Z,14.45
2022-10-04T19:23:45.373Z,14.55
2022-10-04T19:26:35.672Z,14.58
2022-10-04T19:29:49.680Z,14.71
2022-10-04T19:32:27.832Z,14.53
2022-10-04T19:34:54.887Z,14.47
2022-10-04T19:37:52.210Z,14.43
2022-10-04T19:40:50.826Z,14.48
2022-10-04T19:43:52.617Z,14.41
2022-10-04T19:46:47.147Z,14.49
2022-10-04T19:49:18.667Z,14.37
2022-10-04T19:52:01.114Z,14.19
2022-10-04T19:54:38.493Z,14.07
2022-10-04T19:57:12.682Z,13.90
2022-10-04T19:59:41.897Z,13.71
2022-10-04T20:02:10.675Z,13.60
2022-10-04T20:04:42.301Z,13.76
2022-10-04T20:07:15.443Z,13.99
2022-10-04T20:09:48.115Z,14.10
2022-10-04T20:13:10.839Z,13.96
2022-10-04T20:15:42.831Z,14.05
2022-10-04T20:18:37.417Z,14.09
2022-10-04T20:21:08.721Z,13.88
2022-10-04T20:23:38.444Z,13.73
2022-10-04T20:26:10.613Z,13.82
2022-10-04T20:28:42.018Z,13.83
2022-10-04T20:31:30.237Z,13.71
2022-10-04T20:34:30.265Z,13.93
2022-10-04T20:36:57.074Z,14.09
2022-10-04T20:39:43.370Z,14.00
2022-10-04T20:42:31.880Z,13.95
2022-10-04T20:45:22.628Z,14.04
2022-10-04T20:47:57.771Z,14.10
2022-10-04T20:50:43.651Z,14.16
2022-10-04T20:53:24.396Z,13.97
2022-10-04T20:56:08.194Z,14.03
2022-10-04T20:58:36.054Z,13.93
2022-10-04T21:01:26.908Z,14.03
2022-10-04T21:03:53.977Z,14.10
2022-10-04T21:06:21.028Z,14.05
2022-10-04T21:08:48.013Z,13.95
2022-10-04T21:11:21.016Z,14.01
2022-10-04T21:13:48.802Z,14.02
2022-10-04T21:16:37.357Z,13.98
2022-10-04T21:19:29.516Z,14.03
2022-10-04T21:21:58.640Z,13.83
2022-10-04T21:24:39.742Z,13.73
2022-10-04T21:27:12.828Z,13.85
2022-10-04T21:29:40.299Z,13.75
2022-10-04T21:32:07.415Z,13.60
2022-10-04T21:34:52.383Z,13.63
2022-10-04T21:37:21.087Z,13.66
2022-10-04T21:39:48.211Z,13.58
2022-10-04T21:42:15.449Z,13.44
2022-10-04T21:44:42.466Z,13.59
2022-10-04T21:47:09.933Z,13.67
2022-10-04T21:49:37.043Z,13.58
2022-10-04T21:52:04.383Z,13.46
2022-10-04T21:54:31.364Z,13.33
2022-10-04T21:56:58.464Z,13.19
2022-10-04T21:59:25.436Z,13.23
2022-10-04T22:01:52.613Z,13.35
2022-10-04T22:04:19.718Z,13.26
2022-10-04T22:06:47.183Z,13.13
2022-10-04T22:09:14.402Z,12.95
2022-10-04T22:11:41.399Z,12.81
2022-10-04T22:14:08.422Z,13.05
2022-10-04T22:16:35.654Z,13.25
2022-10-04T22:19:02.692Z,13.36
2022-10-04T22:21:29.812Z,13.25
2022-10-04T22:23:56.925Z,13.12
2022-10-04T22:26:26.683Z,13.17
2022-10-04T22:28:56.103Z,13.23
2022-10-04T22:31:28.657Z,13.22
2022-10-04T22:33:56.562Z,13.25
2022-10-04T22:36:31.583Z,13.15
2022-10-04T22:39:15.327Z,12.99
2022-10-04T22:41:44.903Z,12.89
2022-10-04T22:44:18.084Z,12.86
2022-10-04T22:46:48.706Z,12.93
2022-10-04T22:49:17.924Z,12.78
2022-10-04T22:51:47.631Z,12.79
2022-10-04T22:54:20.415Z,12.78
2022-10-04T22:56:48.646Z,12.73
2022-10-04T22:59:19.633Z,12.51
2022-10-04T23:01:47.883Z,12.40
2022-10-04T23:04:24.742Z,12.26
2022-10-04T23:06:53.275Z,12.25
2022-10-04T23:09:31.634Z,12.23
2022-10-04T23:12:02.577Z,12.20
2022-10-04T23:14:34.689Z,12.29
2022-10-04T23:17:27.909Z,12.24
2022-10-04T23:19:58.649Z,12.22
2022-10-04T23:22:33.850Z,12.13
2022-10-04T23:25:05.652Z,11.96
2022-10-04T23:27:40.454Z,11.84
2022-10-04T23:30:14.960Z,11.87
2022-10-04T23:32:45.134Z,11.82
2022-10-04T23:35:17.479Z,11.92
2022-10-04T23:37:46.940Z,12.21
2022-10-04T23:40:18.159Z,12.33
2022-10-04T23:42:48.183Z,12.53
2022-10-04T23:45:22.026Z,12.57
2022-10-04T23:47:53.487Z,12.31
2022-10-04T23:50:29.154Z,12.13
2022-10-04T23:53:02.487Z,12.04
2022-10-04T23:55:36.345Z,12.03
2022-10-04T23:58:19.602Z,12.11
